sensor_id;sensor_type;location;lat;lon;timestamp;temperature;humidity
14370;DHT22;7268;50.792;0.252;2023-06-22T00:01:46;14.50;99.90
14370;DHT22;7268;50.792;0.252;2023-06-22T00:04:13;14.50;99.90
14370;DHT22;7268;50.792;0.252;2023-06-22T00:06:40;14.40;99.90
14370;DHT22;7268;50.792;0.252;2023-06-22T00:09:07;14.40;99.90
14370;DHT22;7268;50.792;0.252;2023-06-22T00:11:34;14.40;99.90
14370;DHT22;7268;50.792;0.252;2023-06-22T00:14:01;14.20;99.90
14370;DHT22;7268;50.792;0.252;2023-06-22T00:16:28;14.20;99.90
14370;DHT22;7268;50.792;0.252;2023-06-22T00:18:55;14.30;99.90
14370;DHT22;7268;50.792;0.252;2023-06-22T00:21:22;14.50;99.90
14370;DHT22;7268;50.792;0.252;2023-06-22T00:23:48;14.50;99.90
14370;DHT22;7268;50.792;0.252;2023-06-22T00:26:16;14.40;99.90
14370;DHT22;7268;50.792;0.252;2023-06-22T00:28:43;14.30;99.90
14370;DHT22;7268;50.792;0.252;2023-06-22T00:31:10;14.30;99.90
14370;DHT22;7268;50.792;0.252;2023-06-22T00:33:37;14.40;99.90
14370;DHT22;7268;50.792;0.252;2023-06-22T00:36:05;14.40;99.90
14370;DHT22;7268;50.792;0.252;2023-06-22T00:38:33;14.50;99.90
14370;DHT22;7268;50.792;0.252;2023-06-22T00:41:00;14.40;99.90
14370;DHT22;7268;50.792;0.252;2023-06-22T00:43:27;14.30;99.90
14370;DHT22;7268;50.792;0.252;2023-06-22T00:45:55;14.20;99.90
14370;DHT22;7268;50.792;0.252;2023-06-22T00:48:23;14.00;99.90
14370;DHT22;7268;50.792;0.252;2023-06-22T00:50:50;13.90;99.90
14370;DHT22;7268;50.792;0.252;2023-06-22T00:53:20;13.90;99.90
14370;DHT22;7268;50.792;0.252;2023-06-22T00:55:48;13.80;99.90
14370;DHT22;7268;50.792;0.252;2023-06-22T00:58:19;13.80;99.90
14370;DHT22;7268;50.792;0.252;2023-06-22T01:00:48;13.80;99.90
14370;DHT22;7268;50.792;0.252;2023-06-22T01:03:16;13.70;99.90
14370;DHT22;7268;50.792;0.252;2023-06-22T01:05:44;13.70;99.90
14370;DHT22;7268;50.792;0.252;2023-06-22T01:11:18;13.60;99.90
14370;DHT22;7268;50.792;0.252;2023-06-22T01:16:35;13.60;99.90
14370;DHT22;7268;50.792;0.252;2023-06-22T01:19:16;13.60;99.90
14370;DHT22;7268;50.792;0.252;2023-06-22T01:21:45;13.60;99.90
14370;DHT22;7268;50.792;0.252;2023-06-22T01:27:18;13.60;99.90
14370;DHT22;7268;50.792;0.252;2023-06-22T01:29:54;13.60;99.90
14370;DHT22;7268;50.792;0.252;2023-06-22T01:32:31;13.50;99.90
14370;DHT22;7268;50.792;0.252;2023-06-22T01:35:01;13.50;99.90
14370;DHT22;7268;50.792;0.252;2023-06-22T01:37:29;13.50;99.90
14370;DHT22;7268;50.792;0.252;2023-06-22T01:39:56;13.50;99.90
14370;DHT22;7268;50.792;0.252;2023-06-22T01:42:24;13.50;99.90
14370;DHT22;7268;50.792;0.252;2023-06-22T01:44:53;13.40;99.90
14370;DHT22;7268;50.792;0.252;2023-06-22T01:47:24;13.50;99.90
14370;DHT22;7268;50.792;0.252;2023-06-22T01:49:51;13.50;99.90
14370;DHT22;7268;50.792;0.252;2023-06-22T01:52:18;13.40;99.90
14370;DHT22;7268;50.792;0.252;2023-06-22T01:54:47;13.50;99.90
14370;DHT22;7268;50.792;0.252;2023-06-22T01:57:15;13.40;99.90
14370;DHT22;7268;50.792;0.252;2023-06-22T01:59:53;13.50;99.90
14370;DHT22;7268;50.792;0.252;2023-06-22T02:02:24;13.50;99.90
14370;DHT22;7268;50.792;0.252;2023-06-22T02:04:59;13.50;99.90
14370;DHT22;7268;50.792;0.252;2023-06-22T02:07:33;13.60;99.90
14370;DHT22;7268;50.792;0.252;2023-06-22T02:10:02;13.60;99.90
14370;DHT22;7268;50.792;0.252;2023-06-22T02:12:31;13.50;99.90
14370;DHT22;7268;50.792;0.252;2023-06-22T02:14:59;13.50;99.90
14370;DHT22;7268;50.792;0.252;2023-06-22T02:17:28;13.50;99.90
14370;DHT22;7268;50.792;0.252;2023-06-22T02:19:55;13.50;99.90
14370;DHT22;7268;50.792;0.252;2023-06-22T02:22:21;13.50;99.90
14370;DHT22;7268;50.792;0.252;2023-06-22T02:24:48;13.50;99.90
14370;DHT22;7268;50.792;0.252;2023-06-22T02:27:15;13.40;99.90
14370;DHT22;7268;50.792;0.252;2023-06-22T02:29:42;13.30;99.90
14370;DHT22;7268;50.792;0.252;2023-06-22T02:32:09;13.40;99.90
14370;DHT22;7268;50.792;0.252;2023-06-22T02:34:36;13.50;99.90
14370;DHT22;7268;50.792;0.252;2023-06-22T02:37:03;13.50;99.90
14370;DHT22;7268;50.792;0.252;2023-06-22T02:39:31;13.40;99.90
14370;DHT22;7268;50.792;0.252;2023-06-22T02:41:58;13.50;99.90
14370;DHT22;7268;50.792;0.252;2023-06-22T02:44:25;13.50;99.90
14370;DHT22;7268;50.792;0.252;2023-06-22T02:46:52;13.60;99.90
14370;DHT22;7268;50.792;0.252;2023-06-22T02:49:20;13.60;99.90
14370;DHT22;7268;50.792;0.252;2023-06-22T02:51:48;13.50;99.90
14370;DHT22;7268;50.792;0.252;2023-06-22T02:54:15;13.50;99.90
14370;DHT22;7268;50.792;0.252;2023-06-22T02:56:43;13.60;99.90
14370;DHT22;7268;50.792;0.252;2023-06-22T02:59:13;13.60;99.90
14370;DHT22;7268;50.792;0.252;2023-06-22T03:01:39;13.50;99.90
14370;DHT22;7268;50.792;0.252;2023-06-22T03:04:08;13.50;99.90
14370;DHT22;7268;50.792;0.252;2023-06-22T03:06:35;13.50;99.90
14370;DHT22;7268;50.792;0.252;2023-06-22T03:09:04;13.40;99.90
14370;DHT22;7268;50.792;0.252;2023-06-22T03:11:32;13.50;99.90
14370;DHT22;7268;50.792;0.252;2023-06-22T03:14:00;13.40;99.90
14370;DHT22;7268;50.792;0.252;2023-06-22T03:16:27;13.30;99.90
14370;DHT22;7268;50.792;0.252;2023-06-22T03:18:54;13.40;99.90
14370;DHT22;7268;50.792;0.252;2023-06-22T03:21:27;13.40;99.90
14370;DHT22;7268;50.792;0.252;2023-06-22T03:23:55;13.40;99.90
14370;DHT22;7268;50.792;0.252;2023-06-22T03:26:22;13.30;99.90
14370;DHT22;7268;50.792;0.252;2023-06-22T03:28:50;13.20;99.90
14370;DHT22;7268;50.792;0.252;2023-06-22T03:31:17;13.20;99.90
14370;DHT22;7268;50.792;0.252;2023-06-22T03:33:49;13.20;99.90
14370;DHT22;7268;50.792;0.252;2023-06-22T03:36:17;13.20;99.90
14370;DHT22;7268;50.792;0.252;2023-06-22T03:38:49;13.10;99.90
14370;DHT22;7268;50.792;0.252;2023-06-22T03:41:16;13.00;99.90
14370;DHT22;7268;50.792;0.252;2023-06-22T03:43:43;13.00;99.90
14370;DHT22;7268;50.792;0.252;2023-06-22T03:46:10;12.90;99.90
14370;DHT22;7268;50.792;0.252;2023-06-22T03:48:38;12.90;99.90
14370;DHT22;7268;50.792;0.252;2023-06-22T03:51:05;12.90;99.90
14370;DHT22;7268;50.792;0.252;2023-06-22T03:53:32;12.90;99.90
14370;DHT22;7268;50.792;0.252;2023-06-22T03:55:58;12.90;99.90
14370;DHT22;7268;50.792;0.252;2023-06-22T03:58:25;13.00;99.90
14370;DHT22;7268;50.792;0.252;2023-06-22T04:00:53;13.10;99.90
14370;DHT22;7268;50.792;0.252;2023-06-22T04:03:19;13.20;99.90
14370;DHT22;7268;50.792;0.252;2023-06-22T04:05:47;13.20;99.90
14370;DHT22;7268;50.792;0.252;2023-06-22T04:08:15;13.20;99.90
14370;DHT22;7268;50.792;0.252;2023-06-22T04:10:42;13.10;99.90
14370;DHT22;7268;50.792;0.252;2023-06-22T04:13:09;13.10;99.90
14370;DHT22;7268;50.792;0.252;2023-06-22T04:15:36;13.10;99.90
14370;DHT22;7268;50.792;0.252;2023-06-22T04:18:04;13.10;99.90
14370;DHT22;7268;50.792;0.252;2023-06-22T04:20:32;13.10;99.90
14370;DHT22;7268;50.792;0.252;2023-06-22T04:22:59;13.20;99.90
14370;DHT22;7268;50.792;0.252;2023-06-22T04:25:26;13.20;99.90
14370;DHT22;7268;50.792;0.252;2023-06-22T04:27:53;13.30;99.90
14370;DHT22;7268;50.792;0.252;2023-06-22T04:30:23;13.20;99.90
14370;DHT22;7268;50.792;0.252;2023-06-22T04:32:50;13.30;99.90
14370;DHT22;7268;50.792;0.252;2023-06-22T04:35:25;13.50;99.90
14370;DHT22;7268;50.792;0.252;2023-06-22T04:37:53;13.60;99.90
14370;DHT22;7268;50.792;0.252;2023-06-22T04:40:22;13.60;99.90
14370;DHT22;7268;50.792;0.252;2023-06-22T04:42:49;13.70;99.90
14370;DHT22;7268;50.792;0.252;2023-06-22T04:45:20;13.80;99.90
14370;DHT22;7268;50.792;0.252;2023-06-22T04:47:48;13.90;99.90
14370;DHT22;7268;50.792;0.252;2023-06-22T04:50:15;14.00;99.90
14370;DHT22;7268;50.792;0.252;2023-06-22T04:52:43;14.10;99.90
14370;DHT22;7268;50.792;0.252;2023-06-22T04:55:09;14.10;99.90
14370;DHT22;7268;50.792;0.252;2023-06-22T04:57:39;14.10;99.90
14370;DHT22;7268;50.792;0.252;2023-06-22T05:00:06;14.10;99.90
14370;DHT22;7268;50.792;0.252;2023-06-22T05:02:40;14.20;99.90
14370;DHT22;7268;50.792;0.252;2023-06-22T05:05:08;14.30;99.90
14370;DHT22;7268;50.792;0.252;2023-06-22T05:07:36;14.40;99.90
14370;DHT22;7268;50.792;0.252;2023-06-22T05:10:03;14.40;99.90
14370;DHT22;7268;50.792;0.252;2023-06-22T05:12:31;14.50;99.90
14370;DHT22;7268;50.792;0.252;2023-06-22T05:15:00;14.60;99.90
14370;DHT22;7268;50.792;0.252;2023-06-22T05:17:28;14.70;99.90
14370;DHT22;7268;50.792;0.252;2023-06-22T05:19:55;14.80;99.90
14370;DHT22;7268;50.792;0.252;2023-06-22T05:22:22;15.00;99.90
14370;DHT22;7268;50.792;0.252;2023-06-22T05:24:49;15.10;99.90
14370;DHT22;7268;50.792;0.252;2023-06-22T05:27:16;15.20;99.90
14370;DHT22;7268;50.792;0.252;2023-06-22T05:29:43;15.50;99.90
14370;DHT22;7268;50.792;0.252;2023-06-22T05:32:10;15.80;99.90
14370;DHT22;7268;50.792;0.252;2023-06-22T05:34:38;16.00;99.90
14370;DHT22;7268;50.792;0.252;2023-06-22T05:37:05;16.20;99.90
14370;DHT22;7268;50.792;0.252;2023-06-22T05:39:32;16.40;99.90
14370;DHT22;7268;50.792;0.252;2023-06-22T05:41:59;16.60;99.90
14370;DHT22;7268;50.792;0.252;2023-06-22T05:44:26;16.80;99.90
14370;DHT22;7268;50.792;0.252;2023-06-22T05:46:53;17.00;99.90
14370;DHT22;7268;50.792;0.252;2023-06-22T05:49:20;17.20;99.90
14370;DHT22;7268;50.792;0.252;2023-06-22T05:51:49;17.50;99.90
14370;DHT22;7268;50.792;0.252;2023-06-22T05:54:16;17.80;99.90
14370;DHT22;7268;50.792;0.252;2023-06-22T05:56:45;18.10;99.90
14370;DHT22;7268;50.792;0.252;2023-06-22T05:59:11;18.30;99.60
14370;DHT22;7268;50.792;0.252;2023-06-22T06:01:38;18.70;98.00
14370;DHT22;7268;50.792;0.252;2023-06-22T06:04:07;18.80;97.80
14370;DHT22;7268;50.792;0.252;2023-06-22T06:06:35;18.70;97.30
14370;DHT22;7268;50.792;0.252;2023-06-22T06:09:04;18.80;97.70
14370;DHT22;7268;50.792;0.252;2023-06-22T06:11:31;18.70;96.90
14370;DHT22;7268;50.792;0.252;2023-06-22T06:13:59;18.60;97.30
14370;DHT22;7268;50.792;0.252;2023-06-22T06:16:25;18.50;97.20
14370;DHT22;7268;50.792;0.252;2023-06-22T06:18:53;18.30;97.00
14370;DHT22;7268;50.792;0.252;2023-06-22T06:21:22;18.10;97.10
14370;DHT22;7268;50.792;0.252;2023-06-22T06:23:49;17.90;97.40
14370;DHT22;7268;50.792;0.252;2023-06-22T06:26:16;17.80;97.80
14370;DHT22;7268;50.792;0.252;2023-06-22T06:28:44;18.00;97.40
14370;DHT22;7268;50.792;0.252;2023-06-22T06:31:11;18.20;97.30
14370;DHT22;7268;50.792;0.252;2023-06-22T06:33:38;18.60;96.80
14370;DHT22;7268;50.792;0.252;2023-06-22T06:36:05;18.90;96.20
14370;DHT22;7268;50.792;0.252;2023-06-22T06:38:35;19.30;95.40
14370;DHT22;7268;50.792;0.252;2023-06-22T06:41:02;19.40;94.40
14370;DHT22;7268;50.792;0.252;2023-06-22T06:43:28;20.00;95.10
14370;DHT22;7268;50.792;0.252;2023-06-22T06:45:55;20.80;92.60
14370;DHT22;7268;50.792;0.252;2023-06-22T06:48:22;21.30;91.40
14370;DHT22;7268;50.792;0.252;2023-06-22T06:50:49;21.40;91.00
14370;DHT22;7268;50.792;0.252;2023-06-22T06:53:16;21.50;90.30
14370;DHT22;7268;50.792;0.252;2023-06-22T06:55:43;21.40;90.40
14370;DHT22;7268;50.792;0.252;2023-06-22T06:58:12;22.50;90.00
14370;DHT22;7268;50.792;0.252;2023-06-22T07:00:40;23.70;85.30
14370;DHT22;7268;50.792;0.252;2023-06-22T07:03:07;23.90;81.20
14370;DHT22;7268;50.792;0.252;2023-06-22T07:05:34;24.50;80.20
14370;DHT22;7268;50.792;0.252;2023-06-22T07:08:02;25.00;78.00
14370;DHT22;7268;50.792;0.252;2023-06-22T07:10:29;24.70;77.40
14370;DHT22;7268;50.792;0.252;2023-06-22T07:12:57;24.90;78.70
14370;DHT22;7268;50.792;0.252;2023-06-22T07:15:24;25.00;79.20
14370;DHT22;7268;50.792;0.252;2023-06-22T07:17:52;25.20;75.80
14370;DHT22;7268;50.792;0.252;2023-06-22T07:20:19;24.70;77.00
14370;DHT22;7268;50.792;0.252;2023-06-22T07:22:46;24.30;79.80
14370;DHT22;7268;50.792;0.252;2023-06-22T07:25:13;25.10;77.00
14370;DHT22;7268;50.792;0.252;2023-06-22T07:28:01;26.50;74.50
14370;DHT22;7268;50.792;0.252;2023-06-22T07:30:33;26.80;72.00
14370;DHT22;7268;50.792;0.252;2023-06-22T07:33:03;26.90;72.40
14370;DHT22;7268;50.792;0.252;2023-06-22T07:35:36;27.60;70.00
14370;DHT22;7268;50.792;0.252;2023-06-22T07:38:03;27.40;68.50
14370;DHT22;7268;50.792;0.252;2023-06-22T07:40:32;27.40;70.20
14370;DHT22;7268;50.792;0.252;2023-06-22T07:43:00;27.60;69.00
14370;DHT22;7268;50.792;0.252;2023-06-22T07:45:27;27.10;70.30
14370;DHT22;7268;50.792;0.252;2023-06-22T07:47:54;26.50;72.70
14370;DHT22;7268;50.792;0.252;2023-06-22T07:50:21;27.10;69.60
14370;DHT22;7268;50.792;0.252;2023-06-22T07:52:48;27.50;68.10
14370;DHT22;7268;50.792;0.252;2023-06-22T07:55:15;28.40;66.50
14370;DHT22;7268;50.792;0.252;2023-06-22T07:57:42;28.70;64.40
14370;DHT22;7268;50.792;0.252;2023-06-22T08:00:10;29.20;64.00
14370;DHT22;7268;50.792;0.252;2023-06-22T08:02:43;28.70;62.90
14370;DHT22;7268;50.792;0.252;2023-06-22T08:05:11;28.70;63.80
14370;DHT22;7268;50.792;0.252;2023-06-22T08:07:41;29.40;62.30
14370;DHT22;7268;50.792;0.252;2023-06-22T08:10:11;28.90;62.70
14370;DHT22;7268;50.792;0.252;2023-06-22T08:12:39;29.80;60.80
14370;DHT22;7268;50.792;0.252;2023-06-22T08:15:06;29.70;59.80
14370;DHT22;7268;50.792;0.252;2023-06-22T08:17:34;29.50;58.30
14370;DHT22;7268;50.792;0.252;2023-06-22T08:20:01;29.30;60.20
14370;DHT22;7268;50.792;0.252;2023-06-22T08:22:30;28.40;62.80
14370;DHT22;7268;50.792;0.252;2023-06-22T08:24:57;28.50;62.00
14370;DHT22;7268;50.792;0.252;2023-06-22T08:27:24;28.70;62.20
14370;DHT22;7268;50.792;0.252;2023-06-22T08:29:51;29.00;62.20
14370;DHT22;7268;50.792;0.252;2023-06-22T08:32:21;29.20;62.30
14370;DHT22;7268;50.792;0.252;2023-06-22T08:34:48;30.30;60.50
14370;DHT22;7268;50.792;0.252;2023-06-22T08:37:15;30.90;59.00
14370;DHT22;7268;50.792;0.252;2023-06-22T08:39:42;31.00;57.10
14370;DHT22;7268;50.792;0.252;2023-06-22T08:42:09;30.50;60.40
14370;DHT22;7268;50.792;0.252;2023-06-22T08:44:36;31.10;57.90
14370;DHT22;7268;50.792;0.252;2023-06-22T08:47:03;31.20;58.40
14370;DHT22;7268;50.792;0.252;2023-06-22T08:49:30;31.20;57.70
14370;DHT22;7268;50.792;0.252;2023-06-22T08:51:57;30.00;57.50
14370;DHT22;7268;50.792;0.252;2023-06-22T08:54:26;29.30;58.00
14370;DHT22;7268;50.792;0.252;2023-06-22T08:56:55;29.80;59.50
14370;DHT22;7268;50.792;0.252;2023-06-22T08:59:22;29.40;57.50
14370;DHT22;7268;50.792;0.252;2023-06-22T09:01:49;30.60;57.30
14370;DHT22;7268;50.792;0.252;2023-06-22T09:04:16;31.00;54.60
14370;DHT22;7268;50.792;0.252;2023-06-22T09:06:43;30.30;58.90
14370;DHT22;7268;50.792;0.252;2023-06-22T09:09:16;31.40;55.60
14370;DHT22;7268;50.792;0.252;2023-06-22T09:11:43;31.80;52.80
14370;DHT22;7268;50.792;0.252;2023-06-22T09:14:10;31.70;52.20
14370;DHT22;7268;50.792;0.252;2023-06-22T09:16:37;30.80;49.70
14370;DHT22;7268;50.792;0.252;2023-06-22T09:19:04;31.70;51.60
14370;DHT22;7268;50.792;0.252;2023-06-22T09:21:31;32.00;49.00
14370;DHT22;7268;50.792;0.252;2023-06-22T09:24:00;31.60;50.30
14370;DHT22;7268;50.792;0.252;2023-06-22T09:26:27;31.50;48.80
14370;DHT22;7268;50.792;0.252;2023-06-22T09:28:54;30.90;51.40
14370;DHT22;7268;50.792;0.252;2023-06-22T09:31:21;31.60;52.90
14370;DHT22;7268;50.792;0.252;2023-06-22T09:33:54;32.70;49.10
14370;DHT22;7268;50.792;0.252;2023-06-22T09:36:21;32.60;48.20
14370;DHT22;7268;50.792;0.252;2023-06-22T09:38:49;32.60;47.70
14370;DHT22;7268;50.792;0.252;2023-06-22T09:41:22;33.40;47.40
14370;DHT22;7268;50.792;0.252;2023-06-22T09:43:49;33.50;47.30
14370;DHT22;7268;50.792;0.252;2023-06-22T09:46:19;32.80;47.20
14370;DHT22;7268;50.792;0.252;2023-06-22T09:48:48;32.40;45.40
14370;DHT22;7268;50.792;0.252;2023-06-22T09:51:15;33.20;49.00
14370;DHT22;7268;50.792;0.252;2023-06-22T09:53:44;34.30;44.60
14370;DHT22;7268;50.792;0.252;2023-06-22T09:56:14;34.70;43.40
14370;DHT22;7268;50.792;0.252;2023-06-22T09:58:42;33.20;45.80
14370;DHT22;7268;50.792;0.252;2023-06-22T10:01:09;32.50;47.50
14370;DHT22;7268;50.792;0.252;2023-06-22T10:03:37;33.10;46.40
14370;DHT22;7268;50.792;0.252;2023-06-22T10:06:05;33.70;45.70
14370;DHT22;7268;50.792;0.252;2023-06-22T10:08:32;33.30;44.10
14370;DHT22;7268;50.792;0.252;2023-06-22T10:10:59;33.90;45.70
14370;DHT22;7268;50.792;0.252;2023-06-22T10:13:26;33.80;43.10
14370;DHT22;7268;50.792;0.252;2023-06-22T10:15:53;33.90;42.80
14370;DHT22;7268;50.792;0.252;2023-06-22T10:18:21;33.10;42.10
14370;DHT22;7268;50.792;0.252;2023-06-22T10:20:49;33.10;43.70
14370;DHT22;7268;50.792;0.252;2023-06-22T10:23:20;33.30;44.90
14370;DHT22;7268;50.792;0.252;2023-06-22T10:25:48;33.70;44.50
14370;DHT22;7268;50.792;0.252;2023-06-22T10:28:15;34.00;40.10
14370;DHT22;7268;50.792;0.252;2023-06-22T10:30:42;33.50;44.00
14370;DHT22;7268;50.792;0.252;2023-06-22T10:33:10;34.00;43.10
14370;DHT22;7268;50.792;0.252;2023-06-22T10:35:38;33.60;42.90
14370;DHT22;7268;50.792;0.252;2023-06-22T10:38:05;34.10;42.10
14370;DHT22;7268;50.792;0.252;2023-06-22T10:40:32;33.30;43.70
14370;DHT22;7268;50.792;0.252;2023-06-22T10:42:59;32.40;43.90
14370;DHT22;7268;50.792;0.252;2023-06-22T10:45:27;32.20;47.60
14370;DHT22;7268;50.792;0.252;2023-06-22T10:47:57;33.30;45.70
14370;DHT22;7268;50.792;0.252;2023-06-22T10:50:25;34.20;44.20
14370;DHT22;7268;50.792;0.252;2023-06-22T10:52:54;33.90;43.10
14370;DHT22;7268;50.792;0.252;2023-06-22T10:55:24;33.60;44.40
14370;DHT22;7268;50.792;0.252;2023-06-22T10:57:51;33.40;42.20
14370;DHT22;7268;50.792;0.252;2023-06-22T11:00:19;33.40;43.10
14370;DHT22;7268;50.792;0.252;2023-06-22T11:02:45;34.60;42.40
14370;DHT22;7268;50.792;0.252;2023-06-22T11:05:13;34.30;41.80
14370;DHT22;7268;50.792;0.252;2023-06-22T11:07:43;34.00;41.30
14370;DHT22;7268;50.792;0.252;2023-06-22T11:10:11;34.70;40.80
14370;DHT22;7268;50.792;0.252;2023-06-22T11:12:38;34.10;41.60
14370;DHT22;7268;50.792;0.252;2023-06-22T11:15:06;34.30;42.60
14370;DHT22;7268;50.792;0.252;2023-06-22T11:17:37;34.30;41.60
14370;DHT22;7268;50.792;0.252;2023-06-22T11:20:05;34.60;40.10
14370;DHT22;7268;50.792;0.252;2023-06-22T11:22:38;35.00;42.30
14370;DHT22;7268;50.792;0.252;2023-06-22T11:25:06;34.60;41.30
14370;DHT22;7268;50.792;0.252;2023-06-22T11:27:34;34.20;41.40
14370;DHT22;7268;50.792;0.252;2023-06-22T11:30:01;33.20;51.10
14370;DHT22;7268;50.792;0.252;2023-06-22T11:32:27;33.10;52.80
14370;DHT22;7268;50.792;0.252;2023-06-22T11:34:54;32.90;53.20
14370;DHT22;7268;50.792;0.252;2023-06-22T11:37:21;33.20;54.20
14370;DHT22;7268;50.792;0.252;2023-06-22T11:39:48;33.30;53.50
14370;DHT22;7268;50.792;0.252;2023-06-22T11:42:32;32.20;56.70
14370;DHT22;7268;50.792;0.252;2023-06-22T11:44:59;30.80;58.00
14370;DHT22;7268;50.792;0.252;2023-06-22T11:47:26;31.10;59.70
14370;DHT22;7268;50.792;0.252;2023-06-22T11:49:53;30.80;59.60
14370;DHT22;7268;50.792;0.252;2023-06-22T11:52:20;30.70;61.00
14370;DHT22;7268;50.792;0.252;2023-06-22T11:54:47;30.20;62.90
14370;DHT22;7268;50.792;0.252;2023-06-22T11:57:14;29.50;61.00
14370;DHT22;7268;50.792;0.252;2023-06-22T11:59:41;29.60;62.50
14370;DHT22;7268;50.792;0.252;2023-06-22T12:02:08;29.60;61.80
14370;DHT22;7268;50.792;0.252;2023-06-22T12:04:36;28.50;62.50
14370;DHT22;7268;50.792;0.252;2023-06-22T12:07:03;28.30;65.40
14370;DHT22;7268;50.792;0.252;2023-06-22T12:09:30;29.00;62.50
14370;DHT22;7268;50.792;0.252;2023-06-22T12:11:57;29.10;63.50
14370;DHT22;7268;50.792;0.252;2023-06-22T12:14:24;28.30;65.40
14370;DHT22;7268;50.792;0.252;2023-06-22T12:16:50;28.20;68.10
14370;DHT22;7268;50.792;0.252;2023-06-22T12:19:18;28.20;65.20
14370;DHT22;7268;50.792;0.252;2023-06-22T12:21:44;28.30;66.20
14370;DHT22;7268;50.792;0.252;2023-06-22T12:24:12;28.00;66.60
14370;DHT22;7268;50.792;0.252;2023-06-22T12:26:39;27.70;67.50
14370;DHT22;7268;50.792;0.252;2023-06-22T12:29:06;27.90;66.60
14370;DHT22;7268;50.792;0.252;2023-06-22T12:31:33;28.50;64.80
14370;DHT22;7268;50.792;0.252;2023-06-22T12:34:00;28.60;65.50
14370;DHT22;7268;50.792;0.252;2023-06-22T12:36:27;28.30;65.90
14370;DHT22;7268;50.792;0.252;2023-06-22T12:38:54;28.70;65.30
14370;DHT22;7268;50.792;0.252;2023-06-22T12:41:22;28.40;66.60
14370;DHT22;7268;50.792;0.252;2023-06-22T12:43:49;27.90;68.40
14370;DHT22;7268;50.792;0.252;2023-06-22T12:46:16;27.80;69.60
14370;DHT22;7268;50.792;0.252;2023-06-22T12:48:43;27.50;70.00
14370;DHT22;7268;50.792;0.252;2023-06-22T12:51:10;27.40;69.60
14370;DHT22;7268;50.792;0.252;2023-06-22T12:53:37;27.00;71.00
14370;DHT22;7268;50.792;0.252;2023-06-22T12:56:04;26.30;72.90
14370;DHT22;7268;50.792;0.252;2023-06-22T12:58:30;26.20;74.70
14370;DHT22;7268;50.792;0.252;2023-06-22T13:00:57;26.10;75.30
14370;DHT22;7268;50.792;0.252;2023-06-22T13:03:24;26.00;73.80
14370;DHT22;7268;50.792;0.252;2023-06-22T13:05:54;25.80;75.20
14370;DHT22;7268;50.792;0.252;2023-06-22T13:08:21;25.60;76.80
14370;DHT22;7268;50.792;0.252;2023-06-22T13:11:01;25.60;78.00
14370;DHT22;7268;50.792;0.252;2023-06-22T13:13:28;25.50;76.90
14370;DHT22;7268;50.792;0.252;2023-06-22T13:15:55;25.80;79.90
14370;DHT22;7268;50.792;0.252;2023-06-22T13:18:22;25.50;78.00
14370;DHT22;7268;50.792;0.252;2023-06-22T13:20:49;25.40;78.50
14370;DHT22;7268;50.792;0.252;2023-06-22T13:23:15;25.20;78.20
14370;DHT22;7268;50.792;0.252;2023-06-22T13:25:42;25.10;78.60
14370;DHT22;7268;50.792;0.252;2023-06-22T13:28:09;25.10;78.40
14370;DHT22;7268;50.792;0.252;2023-06-22T13:30:53;25.30;78.30
14370;DHT22;7268;50.792;0.252;2023-06-22T13:33:20;25.20;80.00
14370;DHT22;7268;50.792;0.252;2023-06-22T13:35:46;25.30;79.50
14370;DHT22;7268;50.792;0.252;2023-06-22T13:38:16;25.20;78.80
14370;DHT22;7268;50.792;0.252;2023-06-22T13:40:44;25.50;81.80
14370;DHT22;7268;50.792;0.252;2023-06-22T13:43:11;25.00;79.20
14370;DHT22;7268;50.792;0.252;2023-06-22T13:45:38;25.00;80.10
14370;DHT22;7268;50.792;0.252;2023-06-22T13:48:05;25.20;78.70
14370;DHT22;7268;50.792;0.252;2023-06-22T13:50:33;25.10;78.20
14370;DHT22;7268;50.792;0.252;2023-06-22T13:53:00;25.20;78.40
14370;DHT22;7268;50.792;0.252;2023-06-22T13:55:27;25.50;77.90
14370;DHT22;7268;50.792;0.252;2023-06-22T13:57:54;25.50;78.00
14370;DHT22;7268;50.792;0.252;2023-06-22T14:00:21;25.40;78.40
14370;DHT22;7268;50.792;0.252;2023-06-22T14:02:48;25.60;78.00
14370;DHT22;7268;50.792;0.252;2023-06-22T14:05:15;25.40;81.60
14370;DHT22;7268;50.792;0.252;2023-06-22T14:07:42;25.30;80.10
14370;DHT22;7268;50.792;0.252;2023-06-22T14:10:09;25.30;80.40
14370;DHT22;7268;50.792;0.252;2023-06-22T14:12:36;25.10;80.10
14370;DHT22;7268;50.792;0.252;2023-06-22T14:15:03;25.00;80.90
14370;DHT22;7268;50.792;0.252;2023-06-22T14:17:30;25.10;80.50
14370;DHT22;7268;50.792;0.252;2023-06-22T14:19:57;25.00;80.90
14370;DHT22;7268;50.792;0.252;2023-06-22T14:22:24;24.90;80.70
14370;DHT22;7268;50.792;0.252;2023-06-22T14:24:51;24.40;80.20
14370;DHT22;7268;50.792;0.252;2023-06-22T14:27:18;24.10;81.50
14370;DHT22;7268;50.792;0.252;2023-06-22T14:29:45;24.20;81.50
14370;DHT22;7268;50.792;0.252;2023-06-22T14:32:13;24.30;81.50
14370;DHT22;7268;50.792;0.252;2023-06-22T14:34:40;24.20;81.90
14370;DHT22;7268;50.792;0.252;2023-06-22T14:37:10;24.10;82.60
14370;DHT22;7268;50.792;0.252;2023-06-22T14:39:39;24.00;83.50
14370;DHT22;7268;50.792;0.252;2023-06-22T14:42:06;24.20;84.40
14370;DHT22;7268;50.792;0.252;2023-06-22T14:44:33;24.30;82.00
14370;DHT22;7268;50.792;0.252;2023-06-22T14:47:00;24.50;82.10
14370;DHT22;7268;50.792;0.252;2023-06-22T14:49:27;24.40;81.50
14370;DHT22;7268;50.792;0.252;2023-06-22T14:51:54;24.30;82.40
14370;DHT22;7268;50.792;0.252;2023-06-22T14:54:21;24.30;81.40
14370;DHT22;7268;50.792;0.252;2023-06-22T14:56:48;24.30;82.00
14370;DHT22;7268;50.792;0.252;2023-06-22T14:59:15;24.20;83.20
14370;DHT22;7268;50.792;0.252;2023-06-22T15:01:42;24.10;83.20
14370;DHT22;7268;50.792;0.252;2023-06-22T15:04:12;24.30;85.60
14370;DHT22;7268;50.792;0.252;2023-06-22T15:06:39;24.10;82.60
14370;DHT22;7268;50.792;0.252;2023-06-22T15:09:07;24.10;82.40
14370;DHT22;7268;50.792;0.252;2023-06-22T15:11:34;23.90;83.00
14370;DHT22;7268;50.792;0.252;2023-06-22T15:14:01;23.70;84.20
14370;DHT22;7268;50.792;0.252;2023-06-22T15:16:28;23.70;84.10
14370;DHT22;7268;50.792;0.252;2023-06-22T15:18:55;23.50;84.20
14370;DHT22;7268;50.792;0.252;2023-06-22T15:21:22;23.80;82.60
14370;DHT22;7268;50.792;0.252;2023-06-22T15:23:49;23.70;82.60
14370;DHT22;7268;50.792;0.252;2023-06-22T15:26:16;23.70;82.80
14370;DHT22;7268;50.792;0.252;2023-06-22T15:28:44;23.70;84.40
14370;DHT22;7268;50.792;0.252;2023-06-22T15:31:11;24.00;83.60
14370;DHT22;7268;50.792;0.252;2023-06-22T15:33:41;24.10;82.20
14370;DHT22;7268;50.792;0.252;2023-06-22T15:36:10;23.90;81.90
14370;DHT22;7268;50.792;0.252;2023-06-22T15:38:37;23.90;81.90
14370;DHT22;7268;50.792;0.252;2023-06-22T15:41:04;23.70;81.20
14370;DHT22;7268;50.792;0.252;2023-06-22T15:43:31;23.50;82.40
14370;DHT22;7268;50.792;0.252;2023-06-22T15:45:57;23.60;83.60
14370;DHT22;7268;50.792;0.252;2023-06-22T15:48:25;23.50;82.30
14370;DHT22;7268;50.792;0.252;2023-06-22T15:50:52;23.70;82.90
14370;DHT22;7268;50.792;0.252;2023-06-22T15:53:18;23.60;83.30
14370;DHT22;7268;50.792;0.252;2023-06-22T15:55:45;23.40;83.30
14370;DHT22;7268;50.792;0.252;2023-06-22T15:58:13;23.40;82.90